Time;durP1;ratioP1;P1;durP2;ratioP2;P2;SDS_P1;SDS_P2;PMS_P1;PMS_P2;Temp;Humidity;BMP_temperature;BMP_pressure;BME280_temperature;BME280_humidity;BME280_pressure;Samples;Min_cycle;Max_cycle;Signal;HPM_P1;HPM_P2
2022/04/02 00:01:30;;;;;;;5.97;1.30;;;11.20;64.30;;;;;;5067676;28;20665;-72
2022/04/02 00:03:57;;;;;;;3.13;1.37;;;11.20;64.50;;;;;;5051041;28;20216;-72
2022/04/02 00:06:25;;;;;;;6.40;1.50;;;11.20;64.40;;;;;;5051599;28;20203;-72
2022/04/02 00:08:52;;;;;;;2.70;1.23;;;11.10;64.10;;;;;;5049366;28;20223;-72
2022/04/02 00:11:19;;;;;;;3.63;1.90;;;11.10;64.30;;;;;;5050556;28;20205;-72
2022/04/02 00:13:46;;;;;;;2.30;1.30;;;11.10;64.60;;;;;;5049874;28;20226;-72
2022/04/02 00:16:13;;;;;;;5.30;1.93;;;11.00;65.00;;;;;;5066392;28;20814;-72
2022/04/02 00:18:42;;;;;;;9.30;1.60;;;11.00;65.60;;;;;;5066427;28;20230;-72
2022/04/02 00:21:09;;;;;;;5.80;1.80;;;11.00;66.20;;;;;;5049957;28;20577;-72
2022/04/02 00:23:40;;;;;;;6.30;1.17;;;11.00;66.70;;;;;;5051421;28;20315;-72
2022/04/02 00:26:09;;;;;;;4.53;1.13;;;10.90;66.70;;;;;;5049429;28;20200;-72
2022/04/02 00:28:38;;;;;;;9.07;2.00;;;10.90;66.90;;;;;;5050813;28;20252;-72
2022/04/02 00:31:09;;;;;;;3.60;1.57;;;10.90;67.10;;;;;;5049421;28;20330;-72
2022/04/02 00:33:39;;;;;;;7.03;2.20;;;10.80;67.20;;;;;;5050572;28;21031;-72
2022/04/02 00:36:07;;;;;;;7.70;1.43;;;10.80;67.30;;;;;;5065935;28;20655;-72
2022/04/02 00:38:34;;;;;;;9.63;2.50;;;10.80;67.80;;;;;;5050995;28;20208;-72
2022/04/02 00:41:01;;;;;;;4.20;1.67;;;10.80;68.30;;;;;;5049195;28;21003;-72
2022/04/02 00:43:32;;;;;;;4.90;1.30;;;10.70;67.80;;;;;;5049195;28;20223;-72
2022/04/02 00:46:04;;;;;;;8.70;2.23;;;10.70;67.60;;;;;;5048846;28;20340;-72
2022/04/02 00:48:32;;;;;;;6.13;1.80;;;10.60;67.80;;;;;;5050539;28;20219;-72
2022/04/02 00:51:01;;;;;;;6.17;1.53;;;10.60;67.70;;;;;;5064213;28;20200;-72
2022/04/02 00:53:31;;;;;;;10.40;2.00;;;10.60;67.80;;;;;;5064377;28;20231;-72
2022/04/02 00:55:59;;;;;;;6.80;2.07;;;10.50;67.80;;;;;;5049056;28;20212;-72
2022/04/02 00:58:28;;;;;;;5.13;1.63;;;10.50;67.90;;;;;;5049084;28;20203;-72
2022/04/02 01:00:57;;;;;;;3.27;1.30;;;10.50;68.00;;;;;;5065305;28;20244;-72
2022/04/02 01:03:28;;;;;;;6.30;1.43;;;10.50;68.10;;;;;;5050313;28;20678;-72
2022/04/02 01:05:58;;;;;;;5.07;1.37;;;10.40;68.70;;;;;;5064363;28;20209;-72
2022/04/02 01:08:28;;;;;;;6.00;1.67;;;10.40;69.50;;;;;;5066010;28;20584;-72
2022/04/02 01:10:59;;;;;;;3.33;1.37;;;10.40;70.10;;;;;;5047808;28;20727;-72
2022/04/02 01:13:30;;;;;;;7.30;1.47;;;10.40;70.20;;;;;;5064726;28;20234;-72
2022/04/02 01:16:00;;;;;;;4.57;1.27;;;10.30;70.20;;;;;;5065129;28;20291;-72
2022/04/02 01:18:28;;;;;;;4.90;1.40;;;10.30;70.00;;;;;;5040444;28;20225;-72
2022/04/02 01:20:58;;;;;;;8.03;1.33;;;10.30;70.00;;;;;;5031407;28;20261;-72
2022/04/02 01:23:33;;;;;;;8.47;1.93;;;10.30;70.10;;;;;;5049227;28;21141;-72
2022/04/02 01:26:10;;;;;;;9.57;1.57;;;10.30;70.00;;;;;;5050407;28;20251;-72
2022/04/02 01:28:53;;;;;;;7.73;2.03;;;10.20;69.80;;;;;;5049207;28;20868;-72
2022/04/02 01:31:27;;;;;;;6.93;2.03;;;10.20;69.40;;;;;;5048604;28;20203;-72
2022/04/02 01:33:57;;;;;;;5.33;1.37;;;10.20;69.50;;;;;;5048821;28;20310;-72
2022/04/02 01:36:28;;;;;;;6.40;1.47;;;10.10;69.20;;;;;;5047165;28;21104;-72
2022/04/02 01:39:04;;;;;;;9.87;1.80;;;10.10;68.90;;;;;;5048639;28;20284;-72
2022/04/02 01:41:31;;;;;;;8.33;1.70;;;10.10;68.50;;;;;;5064751;28;20270;-72
2022/04/02 01:43:59;;;;;;;8.87;2.23;;;10.10;68.20;;;;;;5064860;28;20572;-72
2022/04/02 01:46:27;;;;;;;5.13;1.10;;;10.00;67.70;;;;;;5064339;28;20295;-72
2022/04/02 01:48:55;;;;;;;11.20;1.70;;;10.00;67.70;;;;;;5047007;28;20212;-72
2022/04/02 01:51:22;;;;;;;6.03;1.80;;;9.90;67.60;;;;;;5040099;28;20280;-72
2022/04/02 01:53:49;;;;;;;6.30;1.10;;;9.90;67.50;;;;;;5048981;28;20225;-72
2022/04/02 01:56:16;;;;;;;9.27;1.37;;;9.90;66.80;;;;;;5038096;28;20230;-72
2022/04/02 01:58:50;;;;;;;2.80;1.20;;;9.80;66.40;;;;;;5047953;28;20210;-72
2022/04/02 02:01:22;;;;;;;6.40;1.47;;;9.80;66.30;;;;;;5030693;28;20713;-73
2022/04/02 02:03:50;;;;;;;4.13;1.20;;;9.70;66.40;;;;;;5032787;28;20256;-72
2022/04/02 02:06:17;;;;;;;5.67;1.40;;;9.60;66.10;;;;;;5065046;28;20261;-72
2022/04/02 02:08:48;;;;;;;5.07;1.10;;;9.50;66.00;;;;;;5065428;28;20222;-72
2022/04/02 02:11:34;;;;;;;4.53;1.40;;;9.50;66.00;;;;;;5047964;28;20218;-72
2022/04/02 02:14:13;;;;;;;3.97;1.33;;;9.40;65.90;;;;;;5046799;28;20202;-72
2022/04/02 02:16:43;;;;;;;3.40;1.07;;;9.40;66.10;;;;;;5062896;28;20211;-72
2022/04/02 02:19:12;;;;;;;3.23;1.47;;;9.30;66.50;;;;;;5048280;28;20552;-72
2022/04/02 02:21:39;;;;;;;5.80;1.43;;;9.20;66.80;;;;;;5047677;28;20219;-72
2022/04/02 02:24:16;;;;;;;4.13;1.60;;;9.20;67.30;;;;;;5048996;28;20575;-72
2022/04/02 02:26:44;;;;;;;5.17;1.20;;;9.10;67.30;;;;;;5048775;28;20669;-71
2022/04/02 02:29:21;;;;;;;5.67;1.40;;;9.00;67.60;;;;;;5046711;28;20215;-72
2022/04/02 02:31:49;;;;;;;4.47;1.23;;;9.00;67.60;;;;;;5064010;28;20247;-72
2022/04/02 02:37:06;;;;;;;6.13;1.20;;;8.90;67.30;;;;;;5049155;28;20214;-72
2022/04/02 02:39:37;;;;;;;2.50;1.00;;;8.90;67.30;;;;;;5032906;28;20697;-71
2022/04/02 02:42:24;;;;;;;4.83;1.10;;;8.90;67.30;;;;;;5047046;28;20243;-71
2022/04/02 02:45:00;;;;;;;7.57;1.77;;;8.80;67.40;;;;;;5047063;28;20252;-70
2022/04/02 02:47:30;;;;;;;7.07;1.33;;;8.80;67.60;;;;;;5063804;28;20222;-70
2022/04/02 02:49:58;;;;;;;1.73;0.70;;;8.80;67.40;;;;;;5063655;28;20198;-70
2022/04/02 02:52:32;;;;;;;2.87;1.20;;;8.80;67.10;;;;;;5052197;28;20207;-70
2022/04/02 02:54:59;;;;;;;3.23;1.47;;;8.80;66.90;;;;;;5062804;28;20213;-70
2022/04/02 02:57:26;;;;;;;1.70;1.20;;;8.80;66.90;;;;;;5047012;28;20206;-70
2022/04/02 02:59:54;;;;;;;3.73;1.33;;;8.80;67.00;;;;;;5037622;28;20303;-70
2022/04/02 03:02:22;;;;;;;3.30;1.53;;;8.80;67.40;;;;;;5053063;28;20295;-70
2022/04/02 03:04:54;;;;;;;3.57;1.03;;;8.80;67.70;;;;;;5047545;28;20681;-70
2022/04/02 03:07:35;;;;;;;2.83;0.90;;;8.70;67.40;;;;;;5047146;28;20699;-70
2022/04/02 03:10:06;;;;;;;5.80;1.33;;;8.70;67.80;;;;;;5046756;28;20678;-70
2022/04/02 03:12:34;;;;;;;2.23;0.93;;;8.70;67.80;;;;;;5047459;28;20198;-70
2022/04/02 03:15:02;;;;;;;2.10;0.90;;;8.70;68.20;;;;;;5045609;28;20206;-70
2022/04/02 03:17:31;;;;;;;1.70;0.77;;;8.60;67.70;;;;;;5046624;28;20206;-70
2022/04/02 03:20:00;;;;;;;4.63;1.17;;;8.50;68.10;;;;;;5062743;28;20216;-70
2022/04/02 03:22:28;;;;;;;5.27;1.33;;;8.40;68.10;;;;;;5031125;28;20214;-70
2022/04/02 03:24:56;;;;;;;1.63;1.10;;;8.30;68.00;;;;;;5045729;28;20253;-69
2022/04/02 03:27:24;;;;;;;3.50;1.23;;;8.30;68.30;;;;;;5047140;28;20621;-69
2022/04/02 03:29:53;;;;;;;1.07;0.80;;;8.20;68.40;;;;;;5046620;28;20297;-69
2022/04/02 03:32:20;;;;;;;4.20;1.03;;;8.20;68.50;;;;;;5063032;28;20205;-69
2022/04/02 03:34:49;;;;;;;3.37;1.10;;;8.20;68.70;;;;;;5045820;28;20268;-69
2022/04/02 03:37:16;;;;;;;2.47;0.80;;;8.20;68.60;;;;;;5046866;28;20209;-69
2022/04/02 03:39:43;;;;;;;2.47;1.00;;;8.20;68.80;;;;;;5047985;28;20279;-69
2022/04/02 03:42:12;;;;;;;2.90;1.27;;;8.10;69.00;;;;;;5047053;28;20206;-69
2022/04/02 03:44:40;;;;;;;1.70;0.80;;;8.10;69.30;;;;;;5053610;28;20222;-69
2022/04/02 03:47:08;;;;;;;4.33;1.10;;;8.00;69.40;;;;;;5063031;28;20200;-69
2022/04/02 03:49:46;;;;;;;2.07;1.10;;;8.00;69.50;;;;;;5062860;28;20809;-69
2022/04/02 03:52:19;;;;;;;2.70;0.97;;;8.00;69.70;;;;;;5051387;28;20212;-69
2022/04/02 03:54:50;;;;;;;3.30;1.40;;;8.00;69.90;;;;;;5035470;28;20590;-69
2022/04/02 03:57:18;;;;;;;3.13;0.90;;;8.00;69.70;;;;;;5062790;28;20210;-69
2022/04/02 03:59:51;;;;;;;3.47;1.40;;;8.00;69.50;;;;;;5047064;28;20205;-69
2022/04/02 04:02:19;;;;;;;2.20;0.93;;;8.00;69.30;;;;;;5045600;28;20220;-69
2022/04/02 04:04:46;;;;;;;3.30;1.60;;;8.00;69.40;;;;;;5064822;28;20241;-69
2022/04/02 04:07:15;;;;;;;2.20;1.27;;;8.00;69.40;;;;;;5054156;28;20225;-69
2022/04/02 04:09:43;;;;;;;1.57;1.10;;;8.00;69.40;;;;;;5062615;28;20756;-69
2022/04/02 04:12:14;;;;;;;3.60;0.93;;;7.90;69.80;;;;;;5063981;28;20213;-69
2022/04/02 04:14:45;;;;;;;6.37;1.00;;;7.90;70.70;;;;;;5050578;28;20301;-69
2022/04/02 04:17:13;;;;;;;2.70;1.00;;;7.90;70.20;;;;;;5046769;28;20719;-69
2022/04/02 04:19:41;;;;;;;8.60;0.80;;;7.80;70.00;;;;;;5046670;28;20217;-68
2022/04/02 04:22:10;;;;;;;9.00;1.20;;;7.80;69.90;;;;;;5030451;28;20214;-68
2022/04/02 04:24:37;;;;;;;2.80;1.20;;;7.80;70.20;;;;;;5047956;28;20218;-68
2022/04/02 04:27:05;;;;;;;4.10;1.40;;;7.80;70.50;;;;;;5066969;28;20203;-68
2022/04/02 04:29:37;;;;;;;4.07;1.10;;;7.80;70.70;;;;;;5067769;28;20218;-68
2022/04/02 04:32:05;;;;;;;2.23;0.83;;;7.70;71.00;;;;;;5051468;28;20661;-68
2022/04/02 04:34:33;;;;;;;3.23;0.93;;;7.70;71.30;;;;;;5050663;28;20206;-69
2022/04/02 04:37:00;;;;;;;3.43;1.00;;;7.70;71.80;;;;;;5050195;28;20529;-69
2022/04/02 04:39:28;;;;;;;1.33;0.97;;;7.70;71.90;;;;;;5034406;28;20208;-69
2022/04/02 04:41:58;;;;;;;2.70;0.80;;;7.60;72.00;;;;;;5065329;28;20223;-69
2022/04/02 04:44:29;;;;;;;9.40;1.30;;;7.60;72.00;;;;;;5055365;28;20313;-69
2022/04/02 04:46:58;;;;;;;2.33;0.80;;;7.50;71.90;;;;;;5048861;28;20716;-69
2022/04/02 04:49:30;;;;;;;3.27;0.90;;;7.40;72.40;;;;;;5047959;28;20242;-68
2022/04/02 04:52:03;;;;;;;2.43;0.90;;;7.40;72.60;;;;;;5049889;28;20605;-68
2022/04/02 04:54:32;;;;;;;3.20;0.87;;;7.40;72.80;;;;;;5063794;28;20217;-68
2022/04/02 04:57:05;;;;;;;3.07;1.13;;;7.30;73.00;;;;;;5051628;28;20545;-68
2022/04/02 04:59:32;;;;;;;3.37;0.90;;;7.40;73.20;;;;;;5056847;28;20219;-68
2022/04/02 05:02:00;;;;;;;2.80;0.63;;;7.30;73.00;;;;;;5049387;28;20275;-68
2022/04/02 05:04:28;;;;;;;2.30;1.13;;;7.30;73.20;;;;;;5065626;28;20664;-69
2022/04/02 05:06:56;;;;;;;5.17;1.17;;;7.30;73.20;;;;;;5048057;28;20228;-69
2022/04/02 05:09:25;;;;;;;1.37;1.07;;;7.30;73.40;;;;;;5048618;28;20233;-69
2022/04/02 05:11:57;;;;;;;2.67;1.77;;;7.30;73.80;;;;;;5033842;28;20222;-69
2022/04/02 05:14:25;;;;;;;2.93;1.00;;;7.30;74.20;;;;;;5054742;28;20213;-69
2022/04/02 05:16:56;;;;;;;1.53;1.03;;;7.40;74.20;;;;;;5065210;28;20212;-69
2022/04/02 05:19:28;;;;;;;2.17;1.20;;;7.40;74.10;;;;;;5049419;28;20216;-69
2022/04/02 05:21:57;;;;;;;2.53;1.03;;;7.50;74.10;;;;;;5049501;28;20241;-69
2022/04/02 05:24:25;;;;;;;1.27;0.80;;;7.50;74.20;;;;;;5064703;28;20249;-69
2022/04/02 05:26:55;;;;;;;2.00;0.50;;;7.50;74.50;;;;;;5033514;28;20263;-69
2022/04/02 05:29:23;;;;;;;3.50;0.97;;;7.50;74.50;;;;;;5062682;28;20212;-69
2022/04/02 05:31:50;;;;;;;1.93;0.90;;;7.50;74.70;;;;;;5049760;28;20215;-69
2022/04/02 05:34:18;;;;;;;2.10;0.60;;;7.60;75.20;;;;;;5047302;28;20201;-69
2022/04/02 05:36:45;;;;;;;2.80;1.07;;;7.70;75.50;;;;;;5047508;28;20219;-69
2022/04/02 05:39:12;;;;;;;4.13;1.13;;;7.80;73.60;;;;;;5048342;28;20206;-69
2022/04/02 05:41:42;;;;;;;3.90;1.30;;;7.80;73.20;;;;;;5065602;28;20272;-69
2022/04/02 05:44:09;;;;;;;3.63;0.80;;;7.90;73.20;;;;;;5033352;28;20296;-69
2022/04/02 05:46:36;;;;;;;1.63;1.07;;;7.90;73.00;;;;;;5048523;28;20650;-69
2022/04/02 05:49:04;;;;;;;1.87;1.27;;;7.90;72.40;;;;;;5048774;28;20259;-69
2022/04/02 05:51:31;;;;;;;4.70;1.23;;;8.00;71.80;;;;;;5045641;28;20915;-69
2022/04/02 05:53:59;;;;;;;4.57;1.10;;;8.00;71.70;;;;;;5047247;28;20225;-69
2022/04/02 05:56:28;;;;;;;2.20;0.87;;;8.10;71.90;;;;;;5049871;28;20230;-69
2022/04/02 05:58:55;;;;;;;2.67;1.10;;;8.10;72.60;;;;;;5049290;28;20219;-69
2022/04/02 06:01:22;;;;;;;3.13;1.27;;;8.20;73.50;;;;;;5048505;28;20212;-69
2022/04/02 06:03:49;;;;;;;3.20;1.30;;;8.30;74.10;;;;;;5048524;28;20232;-69
2022/04/02 06:06:16;;;;;;;6.50;1.27;;;8.30;74.30;;;;;;5054400;28;20238;-69
2022/04/02 06:08:44;;;;;;;3.07;1.10;;;8.30;74.30;;;;;;5048770;28;20206;-69
2022/04/02 06:11:11;;;;;;;3.73;0.90;;;8.40;74.30;;;;;;5047719;28;20259;-69
2022/04/02 06:13:38;;;;;;;1.97;1.20;;;8.40;73.60;;;;;;5064970;28;20544;-69
2022/04/02 06:16:06;;;;;;;4.53;1.27;;;8.50;73.20;;;;;;5049175;28;20214;-69
2022/04/02 06:18:33;;;;;;;2.63;1.03;;;8.50;73.10;;;;;;5048278;28;20213;-69
2022/04/02 06:21:03;;;;;;;5.00;1.27;;;8.50;73.00;;;;;;5049812;28;20197;-69
2022/04/02 06:23:31;;;;;;;2.57;1.20;;;8.50;73.90;;;;;;5047590;28;20205;-69
2022/04/02 06:25:58;;;;;;;3.70;1.33;;;8.60;73.60;;;;;;5047214;28;20305;-69
2022/04/02 06:28:25;;;;;;;2.33;1.47;;;8.70;73.30;;;;;;5046790;28;20564;-69
2022/04/02 06:30:52;;;;;;;2.70;1.40;;;8.80;73.30;;;;;;5048976;28;20322;-69
2022/04/02 06:33:22;;;;;;;4.77;1.50;;;8.90;73.50;;;;;;5047191;28;20215;-69
2022/04/02 06:35:50;;;;;;;2.87;0.97;;;8.90;73.40;;;;;;5063834;28;20202;-69
2022/04/02 06:38:17;;;;;;;8.37;1.83;;;9.00;73.40;;;;;;5047088;28;20231;-69
2022/04/02 06:40:44;;;;;;;7.50;1.20;;;9.10;73.30;;;;;;5047640;28;20661;-69
2022/04/02 06:43:12;;;;;;;6.07;1.43;;;9.30;73.00;;;;;;5063935;28;20265;-69
2022/04/02 06:46:01;;;;;;;7.33;2.00;;;9.60;72.00;;;;;;5047005;28;20233;-69
2022/04/02 06:48:28;;;;;;;11.93;1.97;;;9.70;70.30;;;;;;5047183;28;20295;-70
2022/04/02 06:50:56;;;;;;;11.43;2.70;;;9.80;69.90;;;;;;5047248;28;20260;-69
2022/04/02 06:53:23;;;;;;;3.23;1.43;;;9.90;69.40;;;;;;5046844;28;20550;-69
2022/04/02 06:55:51;;;;;;;2.57;1.00;;;10.10;69.40;;;;;;5047248;28;20198;-69
2022/04/02 06:58:39;;;;;;;4.40;1.20;;;10.30;69.10;;;;;;5048341;28;20211;-69
2022/04/02 07:01:06;;;;;;;2.77;0.97;;;10.50;69.00;;;;;;5048403;28;21891;-69
2022/04/02 07:03:37;;;;;;;11.87;2.80;;;10.70;68.10;;;;;;5047835;28;20286;-69
2022/04/02 07:06:04;;;;;;;14.30;3.07;;;10.90;65.80;;;;;;5048095;28;20301;-69
2022/04/02 07:08:31;;;;;;;6.37;2.77;;;10.90;63.30;;;;;;5063359;28;20305;-69
2022/04/02 07:10:58;;;;;;;247.73;45.67;;;11.00;64.00;;;;;;5047678;28;20658;-69
2022/04/02 07:13:25;;;;;;;2.50;1.00;;;11.10;63.90;;;;;;5047142;28;20200;-69
2022/04/02 07:15:52;;;;;;;4.67;1.60;;;11.20;64.40;;;;;;5048119;28;20214;-69
2022/04/02 07:18:21;;;;;;;2.67;1.10;;;11.40;63.90;;;;;;5047716;28;20311;-69
2022/04/02 07:20:53;;;;;;;6.77;2.43;;;11.40;62.90;;;;;;5047780;28;20297;-69
2022/04/02 07:23:22;;;;;;;68.30;11.63;;;11.50;61.30;;;;;;5047575;28;20208;-69
2022/04/02 07:25:54;;;;;;;5.27;1.67;;;11.50;61.30;;;;;;5061355;28;20242;-69
2022/04/02 07:28:23;;;;;;;9.13;2.80;;;11.60;63.00;;;;;;5048779;28;20214;-69
2022/04/02 07:30:50;;;;;;;4.47;1.27;;;11.70;62.10;;;;;;5046547;28;20201;-69
2022/04/02 07:33:24;;;;;;;4.07;1.00;;;11.90;62.10;;;;;;5046810;28;20203;-69
2022/04/02 07:36:35;;;;;;;2.73;1.00;;;11.90;61.40;;;;;;5047060;28;20524;-69
2022/04/02 07:39:05;;;;;;;4.57;0.90;;;12.10;61.10;;;;;;5047213;28;20207;-69
2022/04/02 07:41:53;;;;;;;1.90;0.83;;;12.20;60.40;;;;;;5047609;28;20279;-69
2022/04/02 07:44:31;;;;;;;2.03;1.17;;;12.40;59.00;;;;;;5046847;28;20209;-69
2022/04/02 07:46:59;;;;;;;1.63;1.00;;;12.50;58.40;;;;;;5047054;28;20310;-69
2022/04/02 07:49:29;;;;;;;2.03;1.30;;;12.50;58.60;;;;;;5047349;28;20527;-69
2022/04/02 07:51:57;;;;;;;2.03;0.90;;;12.60;57.70;;;;;;5048562;28;21063;-69
2022/04/02 07:54:26;;;;;;;2.37;1.13;;;12.70;56.70;;;;;;5047190;28;20203;-69
2022/04/02 07:57:03;;;;;;;3.27;0.87;;;12.70;53.40;;;;;;5047662;28;20206;-69
2022/04/02 07:59:42;;;;;;;1.47;0.83;;;12.70;55.60;;;;;;5048178;28;20242;-69
2022/04/02 08:05:02;;;;;;;1.90;0.90;;;12.90;56.00;;;;;;5051326;28;20212;-69
2022/04/02 08:07:35;;;;;;;4.80;1.07;;;13.00;56.70;;;;;;5049800;28;20211;-69
2022/04/02 08:10:08;;;;;;;3.40;1.07;;;13.00;57.70;;;;;;5049195;28;20256;-69
2022/04/02 08:12:41;;;;;;;2.47;1.10;;;13.20;56.30;;;;;;5050169;28;21779;-69
2022/04/02 08:15:13;;;;;;;1.97;0.90;;;13.20;55.70;;;;;;5049418;28;20229;-69
2022/04/02 08:17:41;;;;;;;1.50;0.80;;;13.20;56.20;;;;;;5050967;28;20344;-69
2022/04/02 08:20:11;;;;;;;1.60;1.10;;;13.30;56.90;;;;;;5048046;28;20261;-69
2022/04/02 08:22:38;;;;;;;1.57;0.80;;;13.50;55.80;;;;;;5049860;28;20209;-69
2022/04/02 08:25:06;;;;;;;5.90;1.47;;;13.60;55.80;;;;;;5050508;28;20237;-69
2022/04/02 08:28:10;;;;;;;4.47;1.00;;;13.70;55.70;;;;;;5049757;28;20198;-69
2022/04/02 08:31:16;;;;;;;1.60;0.83;;;13.80;54.30;;;;;;5066437;28;20205;-70
2022/04/02 08:34:04;;;;;;;4.73;1.10;;;14.00;55.80;;;;;;5028568;28;20200;-70
2022/04/02 08:36:49;;;;;;;1.70;1.00;;;14.00;52.80;;;;;;5049757;28;20817;-70
2022/04/02 08:39:38;;;;;;;6.30;1.30;;;13.90;52.90;;;;;;5050619;28;20274;-68
2022/04/02 08:42:24;;;;;;;2.87;0.97;;;13.80;53.40;;;;;;5064418;28;20205;-69
2022/04/02 08:45:11;;;;;;;7.57;1.50;;;13.70;54.00;;;;;;5050304;28;20207;-69
2022/04/02 08:47:53;;;;;;;46.53;10.63;;;13.70;54.00;;;;;;5050194;28;20214;-69
2022/04/02 08:50:28;;;;;;;4.50;1.23;;;13.70;54.60;;;;;;5050631;28;20234;-69
2022/04/02 08:53:00;;;;;;;2.50;1.57;;;13.90;54.90;;;;;;5050514;28;20630;-69
2022/04/02 08:55:36;;;;;;;3.13;1.10;;;14.00;55.50;;;;;;5050076;28;20202;-69
2022/04/02 08:58:22;;;;;;;1.47;0.90;;;14.20;55.10;;;;;;5049586;28;20217;-69
2022/04/02 09:01:19;;;;;;;6.33;1.50;;;14.40;52.80;;;;;;5049501;28;20594;-69
2022/04/02 09:04:20;;;;;;;7.27;1.80;;;14.40;52.30;;;;;;5048589;28;20608;-69
2022/04/02 09:07:02;;;;;;;4.63;1.10;;;14.30;53.20;;;;;;5049942;28;20292;-69
2022/04/02 09:09:55;;;;;;;2.20;1.00;;;14.40;53.80;;;;;;5048181;28;20328;-69
2022/04/02 09:12:40;;;;;;;3.17;1.07;;;14.50;54.50;;;;;;5048908;28;20197;-69
2022/04/02 09:15:24;;;;;;;2.93;1.10;;;14.70;53.60;;;;;;5049961;28;20201;-69
2022/04/02 09:18:14;;;;;;;27.30;4.53;;;14.80;53.80;;;;;;5049602;28;20197;-68
2022/04/02 09:20:56;;;;;;;5.53;1.63;;;15.00;52.00;;;;;;5044491;28;20206;-69
2022/04/02 09:23:43;;;;;;;1.87;0.83;;;15.10;51.80;;;;;;5048290;28;20708;-69
2022/04/02 09:26:25;;;;;;;2.70;1.37;;;15.10;51.00;;;;;;5049521;28;20306;-70
2022/04/02 09:29:14;;;;;;;3.07;1.20;;;15.10;50.90;;;;;;5049470;28;20248;-70
2022/04/02 09:32:14;;;;;;;2.37;1.00;;;15.10;52.80;;;;;;5050304;28;20284;-70
2022/04/02 09:35:02;;;;;;;3.87;1.57;;;15.30;51.60;;;;;;5049208;28;20197;-70
2022/04/02 09:37:43;;;;;;;3.83;1.00;;;15.40;52.50;;;;;;5048240;28;20206;-70
2022/04/02 09:40:11;;;;;;;3.50;1.37;;;15.40;53.50;;;;;;5036700;28;20592;-70
2022/04/02 09:42:38;;;;;;;2.17;0.90;;;15.60;52.70;;;;;;5050063;28;20205;-70
2022/04/02 09:45:09;;;;;;;2.17;1.00;;;15.60;51.20;;;;;;5064342;28;20410;-68
2022/04/02 09:47:51;;;;;;;4.43;0.93;;;15.60;51.00;;;;;;5049180;28;20892;-69
2022/04/02 09:50:24;;;;;;;2.80;1.30;;;15.70;52.10;;;;;;5049011;28;20217;-69
2022/04/02 09:53:20;;;;;;;3.03;1.33;;;15.70;51.90;;;;;;5065263;28;20262;-69
2022/04/02 09:55:52;;;;;;;5.33;1.10;;;15.80;50.60;;;;;;5049312;28;20284;-69
2022/04/02 09:58:46;;;;;;;1.50;0.80;;;15.80;49.40;;;;;;5048505;28;20278;-69
2022/04/02 10:01:26;;;;;;;2.03;0.90;;;15.70;51.10;;;;;;5030643;28;20293;-69
2022/04/02 10:04:05;;;;;;;2.17;0.80;;;15.80;51.00;;;;;;5047935;28;20319;-69
2022/04/02 10:06:56;;;;;;;3.27;1.43;;;15.90;50.90;;;;;;5049551;28;20226;-69
2022/04/02 10:09:30;;;;;;;2.13;1.10;;;16.00;50.10;;;;;;5048489;28;20261;-69
2022/04/02 10:11:59;;;;;;;5.40;1.10;;;16.10;49.80;;;;;;5048166;28;20233;-69
2022/04/02 10:14:28;;;;;;;2.37;0.83;;;16.10;47.80;;;;;;5048854;28;20991;-69
2022/04/02 10:17:01;;;;;;;1.23;0.73;;;16.00;49.40;;;;;;5047904;28;20213;-69
2022/04/02 10:19:30;;;;;;;1.47;0.93;;;16.10;48.10;;;;;;5048786;28;21203;-69
2022/04/02 10:22:08;;;;;;;4.23;0.90;;;15.90;46.20;;;;;;5048297;28;20256;-69
2022/04/02 10:24:39;;;;;;;2.20;0.90;;;15.80;48.80;;;;;;5048525;28;20209;-69
2022/04/02 10:27:13;;;;;;;3.00;0.90;;;15.90;48.00;;;;;;5049452;28;20218;-69
2022/04/02 10:30:01;;;;;;;3.13;1.10;;;16.10;48.70;;;;;;5047213;28;20208;-69
2022/04/02 10:32:44;;;;;;;2.17;0.90;;;16.30;48.30;;;;;;5063638;28;20214;-70
2022/04/02 10:35:13;;;;;;;1.83;0.93;;;16.70;47.80;;;;;;5048178;28;20601;-70
2022/04/02 10:37:43;;;;;;;1.50;0.90;;;17.00;45.60;;;;;;5048158;28;20209;-70
2022/04/02 10:40:16;;;;;;;4.13;0.97;;;17.20;46.90;;;;;;5047500;28;20529;-69
2022/04/02 10:42:51;;;;;;;4.10;1.20;;;17.30;46.40;;;;;;5048446;28;20210;-68
2022/04/02 10:45:20;;;;;;;4.80;1.20;;;17.40;44.10;;;;;;5063599;28;20317;-68
2022/04/02 10:47:50;;;;;;;4.37;1.20;;;17.30;45.70;;;;;;5047371;28;20222;-68
2022/04/02 10:50:19;;;;;;;5.13;1.50;;;17.20;45.50;;;;;;5049754;28;20207;-69
2022/04/02 10:52:50;;;;;;;2.03;1.00;;;17.10;44.60;;;;;;5047880;28;20216;-69
2022/04/02 10:55:21;;;;;;;1.33;0.90;;;17.00;45.00;;;;;;5048889;28;20209;-69
2022/04/02 10:57:48;;;;;;;3.50;1.17;;;16.80;46.20;;;;;;5048596;28;20243;-69
2022/04/02 11:00:16;;;;;;;4.83;1.40;;;16.80;47.40;;;;;;5049072;28;20283;-69
2022/04/02 11:02:45;;;;;;;2.77;1.07;;;16.80;46.80;;;;;;5047069;28;20212;-69
2022/04/02 11:05:15;;;;;;;3.23;1.00;;;16.90;46.40;;;;;;5044752;28;20229;-69
2022/04/02 11:07:44;;;;;;;2.67;1.10;;;17.10;45.20;;;;;;5048284;28;20301;-69
2022/04/02 11:10:17;;;;;;;4.17;1.10;;;17.10;43.90;;;;;;5045139;28;20678;-69
2022/04/02 11:12:46;;;;;;;3.10;1.20;;;17.10;42.30;;;;;;5047221;28;20278;-69
2022/04/02 11:15:22;;;;;;;3.60;1.00;;;16.90;41.30;;;;;;5063500;28;20209;-69
2022/04/02 11:17:54;;;;;;;3.03;1.37;;;16.80;42.90;;;;;;5048543;28;20197;-69
2022/04/02 11:20:25;;;;;;;2.23;0.97;;;16.80;44.20;;;;;;5046564;28;20664;-69
2022/04/02 11:22:52;;;;;;;2.33;1.13;;;16.90;42.70;;;;;;5047331;28;20217;-69
2022/04/02 11:25:31;;;;;;;2.43;1.03;;;16.90;45.60;;;;;;5048939;28;20281;-69
2022/04/02 11:28:04;;;;;;;3.27;0.90;;;16.90;44.00;;;;;;5047576;28;20236;-69
2022/04/02 11:30:33;;;;;;;2.03;1.10;;;16.90;40.50;;;;;;5046468;28;20204;-69
2022/04/02 11:33:13;;;;;;;4.57;0.80;;;16.70;42.80;;;;;;5048147;28;20211;-69
2022/04/02 11:35:52;;;;;;;4.30;1.23;;;16.60;42.60;;;;;;5047523;28;20242;-69
2022/04/02 11:38:20;;;;;;;1.50;0.90;;;16.60;43.30;;;;;;5048770;28;20288;-69
2022/04/02 11:40:52;;;;;;;2.87;0.70;;;16.80;45.60;;;;;;5047367;28;20252;-69
2022/04/02 11:43:36;;;;;;;1.83;1.00;;;16.90;42.50;;;;;;5047178;28;20199;-69
2022/04/02 11:46:14;;;;;;;2.73;1.10;;;16.90;41.60;;;;;;5045423;28;20250;-69
2022/04/02 11:48:59;;;;;;;1.33;0.70;;;16.90;41.00;;;;;;5047600;28;20202;-69
2022/04/02 11:51:29;;;;;;;4.53;1.40;;;17.00;42.20;;;;;;5046234;28;20261;-69
2022/04/02 11:54:07;;;;;;;2.90;1.17;;;16.90;40.50;;;;;;5047132;28;20214;-70
2022/04/02 11:56:46;;;;;;;3.40;1.07;;;16.70;40.10;;;;;;5047482;28;20205;-69
2022/04/02 11:59:16;;;;;;;4.00;1.17;;;16.60;41.50;;;;;;5061828;28;20275;-69
2022/04/02 12:01:44;;;;;;;2.97;0.70;;;16.70;42.30;;;;;;5047470;28;20247;-69
2022/04/02 12:04:16;;;;;;;1.33;0.97;;;16.80;43.30;;;;;;5047265;28;20214;-69
2022/04/02 12:06:45;;;;;;;5.17;1.30;;;17.10;45.90;;;;;;5047319;28;21954;-69
2022/04/02 12:09:25;;;;;;;3.00;1.30;;;17.40;44.40;;;;;;5046019;28;20242;-69
2022/04/02 12:11:53;;;;;;;3.70;1.53;;;17.50;45.00;;;;;;5047780;28;20198;-69
2022/04/02 12:14:32;;;;;;;3.53;1.40;;;17.50;45.00;;;;;;5046894;28;20198;-69
2022/04/02 12:17:13;;;;;;;4.63;1.33;;;17.60;45.40;;;;;;5045336;28;20210;-69
2022/04/02 12:19:52;;;;;;;3.57;1.20;;;17.60;44.20;;;;;;5047723;28;20793;-69
2022/04/02 12:22:33;;;;;;;2.93;1.00;;;17.50;43.20;;;;;;5046047;28;20198;-69
2022/04/02 12:25:06;;;;;;;3.60;1.30;;;17.30;44.00;;;;;;5046566;28;20293;-69
2022/04/02 12:27:35;;;;;;;2.27;1.00;;;17.10;44.90;;;;;;5063207;28;20268;-70
2022/04/02 12:30:09;;;;;;;2.83;1.50;;;16.90;41.50;;;;;;5045618;28;20210;-69
2022/04/02 12:32:38;;;;;;;2.50;0.90;;;16.60;41.60;;;;;;5046238;28;20235;-69
2022/04/02 12:35:25;;;;;;;1.53;0.70;;;16.40;43.80;;;;;;5044654;28;20198;-69
2022/04/02 12:37:57;;;;;;;2.43;1.00;;;16.20;43.40;;;;;;5047557;28;20216;-69
2022/04/02 12:40:29;;;;;;;3.07;1.73;;;16.00;44.30;;;;;;5047329;28;20209;-69
2022/04/02 12:43:01;;;;;;;2.00;0.90;;;15.90;44.80;;;;;;5045612;28;20364;-69
2022/04/02 12:45:31;;;;;;;3.20;1.13;;;15.90;45.40;;;;;;5046808;28;20215;-69
2022/04/02 12:48:01;;;;;;;4.57;1.40;;;16.00;44.90;;;;;;5049002;28;20253;-69
2022/04/02 12:50:34;;;;;;;2.00;1.20;;;16.00;43.90;;;;;;5064284;28;20692;-69
2022/04/02 12:53:03;;;;;;;5.03;1.27;;;15.90;45.90;;;;;;5049937;28;20228;-69
2022/04/02 12:55:33;;;;;;;2.83;1.10;;;15.90;45.60;;;;;;5064622;28;20245;-69
2022/04/02 12:58:05;;;;;;;4.07;1.70;;;15.80;45.10;;;;;;5038816;28;20203;-68
2022/04/02 13:00:44;;;;;;;1.87;1.17;;;15.70;46.10;;;;;;5055260;28;20556;-68
2022/04/02 13:03:49;;;;;;;2.87;0.93;;;15.60;44.20;;;;;;5055713;28;20231;-69
2022/04/02 13:06:20;;;;;;;2.80;1.30;;;15.60;44.00;;;;;;5038762;28;20291;-69
2022/04/02 13:09:01;;;;;;;3.13;1.17;;;15.70;45.40;;;;;;5049370;28;20202;-69
2022/04/02 13:11:44;;;;;;;2.40;1.17;;;15.90;46.80;;;;;;5050281;28;20298;-69
2022/04/02 13:14:17;;;;;;;1.37;1.10;;;16.10;47.50;;;;;;5050147;28;20206;-69
2022/04/02 13:16:47;;;;;;;5.73;1.20;;;16.30;47.50;;;;;;5050994;28;20571;-69
2022/04/02 13:22:16;;;;;;;2.17;0.90;;;16.60;48.10;;;;;;5049887;28;20590;-69
2022/04/02 13:25:00;;;;;;;2.30;1.30;;;16.80;46.80;;;;;;5064405;28;20213;-69
2022/04/02 13:27:48;;;;;;;4.67;1.17;;;16.90;46.90;;;;;;5049773;28;20226;-69